sensor_id;sensor_type;location;lat;lon;timestamp;pressure;altitude;pressure_sealevel;temperature;humidity
18275;BME280;19470;49.322;7.218;2022-12-18T00:01:58;99802.00;;;-4.85;100.00
18275;BME280;19470;49.322;7.218;2022-12-18T00:04:26;99807.72;;;-5.04;100.00
18275;BME280;19470;49.322;7.218;2022-12-18T00:06:54;99817.91;;;-5.14;100.00
18275;BME280;19470;49.322;7.218;2022-12-18T00:09:21;99811.66;;;-4.53;100.00
18275;BME280;19470;49.322;7.218;2022-12-18T00:11:47;99808.34;;;-4.33;100.00
18275;BME280;19470;49.322;7.218;2022-12-18T00:14:14;99809.88;;;-4.86;100.00
18275;BME280;19470;49.322;7.218;2022-12-18T00:16:43;99812.88;;;-5.04;100.00
18275;BME280;19470;49.322;7.218;2022-12-18T00:19:10;99800.25;;;-4.84;100.00
18275;BME280;19470;49.322;7.218;2022-12-18T00:21:36;99796.47;;;-4.92;100.00
18275;BME280;19470;49.322;7.218;2022-12-18T00:24:05;99801.53;;;-4.56;100.00
18275;BME280;19470;49.322;7.218;2022-12-18T00:26:34;99807.84;;;-5.05;100.00
18275;BME280;19470;49.322;7.218;2022-12-18T00:29:02;99802.19;;;-5.10;100.00
18275;BME280;19470;49.322;7.218;2022-12-18T00:31:30;99805.97;;;-5.03;100.00
18275;BME280;19470;49.322;7.218;2022-12-18T00:33:57;99809.03;;;-4.98;100.00
18275;BME280;19470;49.322;7.218;2022-12-18T00:36:25;99811.16;;;-5.03;100.00
18275;BME280;19470;49.322;7.218;2022-12-18T00:38:53;99804.22;;;-5.03;100.00
18275;BME280;19470;49.322;7.218;2022-12-18T00:41:22;99808.22;;;-4.88;100.00
18275;BME280;19470;49.322;7.218;2022-12-18T00:44:08;99800.59;;;-4.89;100.00
18275;BME280;19470;49.322;7.218;2022-12-18T00:46:35;99794.50;;;-4.77;100.00
18275;BME280;19470;49.322;7.218;2022-12-18T00:49:02;99802.72;;;-4.72;100.00
18275;BME280;19470;49.322;7.218;2022-12-18T00:51:28;99806.72;;;-4.79;100.00
18275;BME280;19470;49.322;7.218;2022-12-18T00:53:55;99800.44;;;-4.99;100.00
18275;BME280;19470;49.322;7.218;2022-12-18T00:56:24;99801.56;;;-4.45;100.00
18275;BME280;19470;49.322;7.218;2022-12-18T00:58:50;99810.47;;;-4.83;100.00
18275;BME280;19470;49.322;7.218;2022-12-18T01:01:17;99803.19;;;-4.78;100.00
18275;BME280;19470;49.322;7.218;2022-12-18T01:03:44;99803.97;;;-5.11;100.00
18275;BME280;19470;49.322;7.218;2022-12-18T01:06:14;99810.16;;;-5.14;100.00
18275;BME280;19470;49.322;7.218;2022-12-18T01:08:41;99812.56;;;-4.88;100.00
18275;BME280;19470;49.322;7.218;2022-12-18T01:11:09;99812.44;;;-4.75;100.00
18275;BME280;19470;49.322;7.218;2022-12-18T01:13:37;99817.88;;;-4.67;100.00
18275;BME280;19470;49.322;7.218;2022-12-18T01:16:04;99820.19;;;-4.98;100.00
18275;BME280;19470;49.322;7.218;2022-12-18T01:18:31;99813.56;;;-4.55;100.00
18275;BME280;19470;49.322;7.218;2022-12-18T01:20:57;99814.94;;;-4.63;100.00
18275;BME280;19470;49.322;7.218;2022-12-18T01:23:24;99809.78;;;-4.51;100.00
18275;BME280;19470;49.322;7.218;2022-12-18T01:25:50;99804.47;;;-4.39;100.00
18275;BME280;19470;49.322;7.218;2022-12-18T01:28:17;99800.13;;;-4.38;99.54
18275;BME280;19470;49.322;7.218;2022-12-18T01:30:45;99809.88;;;-4.75;100.00
18275;BME280;19470;49.322;7.218;2022-12-18T01:33:11;99808.44;;;-4.91;100.00
18275;BME280;19470;49.322;7.218;2022-12-18T01:35:40;99817.22;;;-5.04;100.00
18275;BME280;19470;49.322;7.218;2022-12-18T01:38:07;99826.66;;;-5.03;100.00
18275;BME280;19470;49.322;7.218;2022-12-18T01:40:33;99828.03;;;-5.10;100.00
18275;BME280;19470;49.322;7.218;2022-12-18T01:43:00;99830.19;;;-4.93;100.00
18275;BME280;19470;49.322;7.218;2022-12-18T01:45:27;99844.03;;;-5.29;100.00
18275;BME280;19470;49.322;7.218;2022-12-18T01:47:57;99837.94;;;-4.82;100.00
18275;BME280;19470;49.322;7.218;2022-12-18T01:50:28;99835.78;;;-5.10;100.00
18275;BME280;19470;49.322;7.218;2022-12-18T01:52:59;99826.66;;;-5.27;100.00
18275;BME280;19470;49.322;7.218;2022-12-18T01:55:28;99826.91;;;-4.73;100.00
18275;BME280;19470;49.322;7.218;2022-12-18T01:57:58;99831.16;;;-4.60;100.00
18275;BME280;19470;49.322;7.218;2022-12-18T02:00:25;99837.19;;;-5.06;100.00
18275;BME280;19470;49.322;7.218;2022-12-18T02:02:54;99836.91;;;-4.68;100.00
18275;BME280;19470;49.322;7.218;2022-12-18T02:05:29;99830.44;;;-4.74;100.00
18275;BME280;19470;49.322;7.218;2022-12-18T02:08:07;99823.84;;;-4.78;100.00
18275;BME280;19470;49.322;7.218;2022-12-18T02:10:43;99836.09;;;-5.50;100.00
18275;BME280;19470;49.322;7.218;2022-12-18T02:13:16;99840.84;;;-5.33;100.00
18275;BME280;19470;49.322;7.218;2022-12-18T02:15:51;99820.75;;;-5.05;100.00
18275;BME280;19470;49.322;7.218;2022-12-18T02:18:23;99821.28;;;-4.89;100.00
18275;BME280;19470;49.322;7.218;2022-12-18T02:21:00;99825.69;;;-5.37;100.00
18275;BME280;19470;49.322;7.218;2022-12-18T02:23:44;99815.59;;;-5.05;100.00
18275;BME280;19470;49.322;7.218;2022-12-18T02:26:18;99813.22;;;-5.08;100.00
18275;BME280;19470;49.322;7.218;2022-12-18T02:28:49;99828.03;;;-5.46;100.00
18275;BME280;19470;49.322;7.218;2022-12-18T02:31:20;99827.31;;;-5.72;100.00
18275;BME280;19470;49.322;7.218;2022-12-18T02:33:49;99828.91;;;-5.23;100.00
18275;BME280;19470;49.322;7.218;2022-12-18T02:36:18;99823.78;;;-5.47;100.00
18275;BME280;19470;49.322;7.218;2022-12-18T02:38:46;99831.97;;;-5.18;100.00
18275;BME280;19470;49.322;7.218;2022-12-18T02:41:15;99815.94;;;-4.99;100.00
18275;BME280;19470;49.322;7.218;2022-12-18T02:43:47;99810.13;;;-5.25;100.00
18275;BME280;19470;49.322;7.218;2022-12-18T02:46:29;99813.38;;;-5.45;100.00
18275;BME280;19470;49.322;7.218;2022-12-18T02:49:03;99816.25;;;-5.26;100.00
18275;BME280;19470;49.322;7.218;2022-12-18T02:51:37;99809.44;;;-5.27;100.00
18275;BME280;19470;49.322;7.218;2022-12-18T02:54:10;99802.16;;;-5.81;100.00
18275;BME280;19470;49.322;7.218;2022-12-18T02:56:46;99804.78;;;-5.70;100.00
18275;BME280;19470;49.322;7.218;2022-12-18T02:59:15;99801.84;;;-5.41;100.00
18275;BME280;19470;49.322;7.218;2022-12-18T03:01:50;99808.41;;;-5.48;100.00
18275;BME280;19470;49.322;7.218;2022-12-18T03:04:25;99805.63;;;-5.45;100.00
18275;BME280;19470;49.322;7.218;2022-12-18T03:06:55;99812.91;;;-5.39;100.00
18275;BME280;19470;49.322;7.218;2022-12-18T03:09:28;99815.34;;;-5.49;100.00
18275;BME280;19470;49.322;7.218;2022-12-18T03:12:02;99814.19;;;-5.45;100.00
18275;BME280;19470;49.322;7.218;2022-12-18T03:14:49;99813.06;;;-5.64;100.00
18275;BME280;19470;49.322;7.218;2022-12-18T03:17:18;99814.03;;;-5.78;100.00
18275;BME280;19470;49.322;7.218;2022-12-18T03:19:46;99821.75;;;-6.02;100.00
18275;BME280;19470;49.322;7.218;2022-12-18T03:22:16;99816.59;;;-6.02;100.00
18275;BME280;19470;49.322;7.218;2022-12-18T03:24:42;99824.34;;;-6.02;100.00
18275;BME280;19470;49.322;7.218;2022-12-18T03:27:14;99834.59;;;-5.66;100.00
18275;BME280;19470;49.322;7.218;2022-12-18T03:29:44;99832.28;;;-5.33;100.00
18275;BME280;19470;49.322;7.218;2022-12-18T03:32:16;99819.53;;;-5.83;100.00
18275;BME280;19470;49.322;7.218;2022-12-18T03:34:46;99812.47;;;-5.81;100.00
18275;BME280;19470;49.322;7.218;2022-12-18T03:37:15;99814.63;;;-5.75;100.00
18275;BME280;19470;49.322;7.218;2022-12-18T03:39:41;99814.78;;;-5.89;100.00
18275;BME280;19470;49.322;7.218;2022-12-18T03:42:13;99818.75;;;-6.33;100.00
18275;BME280;19470;49.322;7.218;2022-12-18T03:44:45;99819.44;;;-5.70;100.00
18275;BME280;19470;49.322;7.218;2022-12-18T03:47:19;99816.13;;;-5.59;100.00
18275;BME280;19470;49.322;7.218;2022-12-18T03:49:56;99814.94;;;-5.55;100.00
18275;BME280;19470;49.322;7.218;2022-12-18T03:52:26;99813.53;;;-5.59;100.00
18275;BME280;19470;49.322;7.218;2022-12-18T03:54:55;99811.13;;;-5.50;100.00
18275;BME280;19470;49.322;7.218;2022-12-18T03:57:27;99816.66;;;-5.91;100.00
18275;BME280;19470;49.322;7.218;2022-12-18T03:59:57;99814.63;;;-5.75;100.00
18275;BME280;19470;49.322;7.218;2022-12-18T04:02:26;99815.19;;;-5.58;100.00
18275;BME280;19470;49.322;7.218;2022-12-18T04:04:58;99813.31;;;-6.04;100.00
18275;BME280;19470;49.322;7.218;2022-12-18T04:07:26;99811.84;;;-5.96;100.00
18275;BME280;19470;49.322;7.218;2022-12-18T04:09:55;99805.59;;;-6.04;100.00
18275;BME280;19470;49.322;7.218;2022-12-18T04:12:25;99804.84;;;-6.43;100.00
18275;BME280;19470;49.322;7.218;2022-12-18T04:14:52;99807.63;;;-6.46;100.00
18275;BME280;19470;49.322;7.218;2022-12-18T04:17:18;99816.41;;;-6.49;100.00
18275;BME280;19470;49.322;7.218;2022-12-18T04:19:45;99822.69;;;-6.03;100.00
18275;BME280;19470;49.322;7.218;2022-12-18T04:22:12;99813.16;;;-6.14;100.00
18275;BME280;19470;49.322;7.218;2022-12-18T04:24:38;99809.94;;;-5.70;100.00
18275;BME280;19470;49.322;7.218;2022-12-18T04:27:05;99811.66;;;-5.57;100.00
18275;BME280;19470;49.322;7.218;2022-12-18T04:29:33;99811.09;;;-6.22;100.00
18275;BME280;19470;49.322;7.218;2022-12-18T04:31:59;99807.63;;;-5.97;100.00
18275;BME280;19470;49.322;7.218;2022-12-18T04:34:26;99807.16;;;-6.14;100.00
18275;BME280;19470;49.322;7.218;2022-12-18T04:36:52;99804.59;;;-6.14;100.00
18275;BME280;19470;49.322;7.218;2022-12-18T04:39:19;99799.28;;;-6.00;100.00
18275;BME280;19470;49.322;7.218;2022-12-18T04:41:45;99797.91;;;-5.69;100.00
18275;BME280;19470;49.322;7.218;2022-12-18T04:44:12;99805.06;;;-5.97;100.00
18275;BME280;19470;49.322;7.218;2022-12-18T04:46:40;99801.47;;;-6.07;100.00
18275;BME280;19470;49.322;7.218;2022-12-18T04:49:06;99807.78;;;-5.87;100.00
18275;BME280;19470;49.322;7.218;2022-12-18T04:51:33;99806.34;;;-5.91;100.00
18275;BME280;19470;49.322;7.218;2022-12-18T04:53:59;99814.94;;;-5.55;100.00
18275;BME280;19470;49.322;7.218;2022-12-18T04:56:26;99810.56;;;-6.14;100.00
18275;BME280;19470;49.322;7.218;2022-12-18T04:58:52;99824.91;;;-6.23;100.00
18275;BME280;19470;49.322;7.218;2022-12-18T05:01:19;99818.78;;;-5.96;100.00
18275;BME280;19470;49.322;7.218;2022-12-18T05:03:47;99817.47;;;-5.67;100.00
18275;BME280;19470;49.322;7.218;2022-12-18T05:06:13;99817.84;;;-5.84;100.00
18275;BME280;19470;49.322;7.218;2022-12-18T05:08:40;99807.69;;;-5.74;100.00
18275;BME280;19470;49.322;7.218;2022-12-18T05:11:08;99821.44;;;-5.50;100.00
18275;BME280;19470;49.322;7.218;2022-12-18T05:13:35;99819.19;;;-6.02;100.00
18275;BME280;19470;49.322;7.218;2022-12-18T05:16:03;99820.09;;;-5.79;100.00
18275;BME280;19470;49.322;7.218;2022-12-18T05:18:30;99828.13;;;-6.19;100.00
18275;BME280;19470;49.322;7.218;2022-12-18T05:20:58;99828.13;;;-6.32;100.00
18275;BME280;19470;49.322;7.218;2022-12-18T05:23:25;99818.94;;;-6.36;100.00
18275;BME280;19470;49.322;7.218;2022-12-18T05:25:52;99815.38;;;-5.97;100.00
18275;BME280;19470;49.322;7.218;2022-12-18T05:28:19;99823.69;;;-5.93;100.00
18275;BME280;19470;49.322;7.218;2022-12-18T05:30:48;99825.84;;;-6.11;100.00
18275;BME280;19470;49.322;7.218;2022-12-18T05:33:15;99832.44;;;-6.20;100.00
18275;BME280;19470;49.322;7.218;2022-12-18T05:35:42;99833.91;;;-6.28;100.00
18275;BME280;19470;49.322;7.218;2022-12-18T05:38:10;99839.50;;;-6.34;100.00
18275;BME280;19470;49.322;7.218;2022-12-18T05:40:36;99857.63;;;-6.36;100.00
18275;BME280;19470;49.322;7.218;2022-12-18T05:43:03;99852.88;;;-6.42;100.00
18275;BME280;19470;49.322;7.218;2022-12-18T05:45:29;99859.97;;;-6.20;100.00
18275;BME280;19470;49.322;7.218;2022-12-18T05:47:56;99868.09;;;-6.13;100.00
18275;BME280;19470;49.322;7.218;2022-12-18T05:50:22;99874.50;;;-6.06;100.00
18275;BME280;19470;49.322;7.218;2022-12-18T05:52:49;99877.97;;;-5.95;100.00
18275;BME280;19470;49.322;7.218;2022-12-18T05:55:17;99874.59;;;-6.08;100.00
18275;BME280;19470;49.322;7.218;2022-12-18T05:57:43;99879.25;;;-6.26;100.00
18275;BME280;19470;49.322;7.218;2022-12-18T06:00:11;99865.03;;;-6.19;100.00
18275;BME280;19470;49.322;7.218;2022-12-18T06:02:37;99874.50;;;-6.06;100.00
18275;BME280;19470;49.322;7.218;2022-12-18T06:05:05;99877.16;;;-6.08;100.00
18275;BME280;19470;49.322;7.218;2022-12-18T06:07:32;99876.16;;;-6.18;100.00
18275;BME280;19470;49.322;7.218;2022-12-18T06:09:58;99870.34;;;-5.96;100.00
18275;BME280;19470;49.322;7.218;2022-12-18T06:12:26;99870.00;;;-6.41;100.00
18275;BME280;19470;49.322;7.218;2022-12-18T06:14:52;99868.16;;;-6.39;100.00
18275;BME280;19470;49.322;7.218;2022-12-18T06:17:20;99864.44;;;-6.48;100.00
18275;BME280;19470;49.322;7.218;2022-12-18T06:19:46;99859.06;;;-6.83;100.00
18275;BME280;19470;49.322;7.218;2022-12-18T06:22:13;99859.38;;;-6.75;100.00
18275;BME280;19470;49.322;7.218;2022-12-18T06:24:39;99863.00;;;-6.64;100.00
18275;BME280;19470;49.322;7.218;2022-12-18T06:27:06;99861.53;;;-6.69;100.00
18275;BME280;19470;49.322;7.218;2022-12-18T06:29:34;99866.59;;;-6.80;100.00
18275;BME280;19470;49.322;7.218;2022-12-18T06:32:00;99867.13;;;-6.62;100.00
18275;BME280;19470;49.322;7.218;2022-12-18T06:34:27;99874.50;;;-6.83;100.00
18275;BME280;19470;49.322;7.218;2022-12-18T06:36:53;99878.47;;;-6.77;100.00
18275;BME280;19470;49.322;7.218;2022-12-18T06:39:20;99870.38;;;-6.98;100.00
18275;BME280;19470;49.322;7.218;2022-12-18T06:41:46;99866.50;;;-6.91;100.00
18275;BME280;19470;49.322;7.218;2022-12-18T06:44:13;99869.50;;;-6.72;100.00
18275;BME280;19470;49.322;7.218;2022-12-18T06:46:40;99877.81;;;-6.68;100.00
18275;BME280;19470;49.322;7.218;2022-12-18T06:49:07;99878.47;;;-6.52;100.00
18275;BME280;19470;49.322;7.218;2022-12-18T06:51:34;99877.91;;;-6.31;100.00
18275;BME280;19470;49.322;7.218;2022-12-18T06:54:01;99874.53;;;-6.45;100.00
18275;BME280;19470;49.322;7.218;2022-12-18T06:56:28;99878.84;;;-6.20;100.00
18275;BME280;19470;49.322;7.218;2022-12-18T06:58:54;99874.28;;;-6.03;100.00
18275;BME280;19470;49.322;7.218;2022-12-18T07:01:21;99871.94;;;-6.06;100.00
18275;BME280;19470;49.322;7.218;2022-12-18T07:03:53;99874.84;;;-6.24;100.00
18275;BME280;19470;49.322;7.218;2022-12-18T07:06:22;99871.88;;;-6.43;100.00
18275;BME280;19470;49.322;7.218;2022-12-18T07:08:51;99864.91;;;-6.04;100.00
18275;BME280;19470;49.322;7.218;2022-12-18T07:11:18;99866.59;;;-6.16;100.00
18275;BME280;19470;49.322;7.218;2022-12-18T07:13:45;99873.31;;;-5.66;100.00
18275;BME280;19470;49.322;7.218;2022-12-18T07:16:14;99874.06;;;-6.00;100.00
18275;BME280;19470;49.322;7.218;2022-12-18T07:18:41;99881.44;;;-6.32;100.00
18275;BME280;19470;49.322;7.218;2022-12-18T07:21:10;99881.50;;;-6.08;100.00
18275;BME280;19470;49.322;7.218;2022-12-18T07:23:37;99884.19;;;-6.10;100.00
18275;BME280;19470;49.322;7.218;2022-12-18T07:26:05;99895.41;;;-5.74;100.00
18275;BME280;19470;49.322;7.218;2022-12-18T07:28:32;99899.47;;;-6.20;99.67
18275;BME280;19470;49.322;7.218;2022-12-18T07:31:02;99907.91;;;-6.69;100.00
18275;BME280;19470;49.322;7.218;2022-12-18T07:33:29;99910.19;;;-6.77;100.00
18275;BME280;19470;49.322;7.218;2022-12-18T07:35:55;99906.69;;;-6.76;100.00
18275;BME280;19470;49.322;7.218;2022-12-18T07:38:23;99916.34;;;-6.79;100.00
18275;BME280;19470;49.322;7.218;2022-12-18T07:40:49;99917.81;;;-6.75;100.00
18275;BME280;19470;49.322;7.218;2022-12-18T07:43:16;99930.78;;;-6.77;100.00
18275;BME280;19470;49.322;7.218;2022-12-18T07:45:43;99932.25;;;-6.73;100.00
18275;BME280;19470;49.322;7.218;2022-12-18T07:48:10;99944.34;;;-6.48;100.00
18275;BME280;19470;49.322;7.218;2022-12-18T07:50:36;99941.84;;;-6.36;100.00
18275;BME280;19470;49.322;7.218;2022-12-18T07:53:06;99928.88;;;-6.35;100.00
18275;BME280;19470;49.322;7.218;2022-12-18T07:55:34;99920.72;;;-6.29;99.56
18275;BME280;19470;49.322;7.218;2022-12-18T07:58:01;99927.50;;;-6.40;99.64
18275;BME280;19470;49.322;7.218;2022-12-18T08:00:28;99918.34;;;-6.06;99.31
18275;BME280;19470;49.322;7.218;2022-12-18T08:02:55;99910.50;;;-5.81;97.20
18275;BME280;19470;49.322;7.218;2022-12-18T08:05:21;99907.44;;;-5.86;96.48
18275;BME280;19470;49.322;7.218;2022-12-18T08:07:48;99911.63;;;-5.96;97.45
18275;BME280;19470;49.322;7.218;2022-12-18T08:10:15;99913.69;;;-6.01;97.80
18275;BME280;19470;49.322;7.218;2022-12-18T08:12:43;99905.03;;;-5.40;94.23
18275;BME280;19470;49.322;7.218;2022-12-18T08:15:10;99894.75;;;-5.52;94.70
18275;BME280;19470;49.322;7.218;2022-12-18T08:17:36;99889.00;;;-4.97;93.23
18275;BME280;19470;49.322;7.218;2022-12-18T08:20:03;99894.19;;;-5.69;96.55
18275;BME280;19470;49.322;7.218;2022-12-18T08:22:30;99891.19;;;-5.99;97.90
18275;BME280;19470;49.322;7.218;2022-12-18T08:24:56;99897.47;;;-5.67;97.64
18275;BME280;19470;49.322;7.218;2022-12-18T08:27:23;99889.56;;;-5.52;98.62
18275;BME280;19470;49.322;7.218;2022-12-18T08:29:51;99886.63;;;-5.35;98.31
18275;BME280;19470;49.322;7.218;2022-12-18T08:32:17;99882.69;;;-4.93;97.40
18275;BME280;19470;49.322;7.218;2022-12-18T08:34:44;99883.88;;;-5.21;98.01
18275;BME280;19470;49.322;7.218;2022-12-18T08:37:10;99880.13;;;-5.17;100.00
18275;BME280;19470;49.322;7.218;2022-12-18T08:39:37;99887.97;;;-4.83;99.48
18275;BME280;19470;49.322;7.218;2022-12-18T08:42:03;99884.25;;;-4.56;96.95
18275;BME280;19470;49.322;7.218;2022-12-18T08:44:47;99886.53;;;-4.29;95.26
18275;BME280;19470;49.322;7.218;2022-12-18T08:47:15;99889.22;;;-4.20;93.02
18275;BME280;19470;49.322;7.218;2022-12-18T08:49:42;99888.53;;;-4.22;93.83
18275;BME280;19470;49.322;7.218;2022-12-18T08:52:08;99883.09;;;-3.74;92.54
18275;BME280;19470;49.322;7.218;2022-12-18T08:54:35;99891.50;;;-3.49;90.92
18275;BME280;19470;49.322;7.218;2022-12-18T08:57:01;99891.75;;;-3.52;90.28
18275;BME280;19470;49.322;7.218;2022-12-18T08:59:28;99901.19;;;-3.63;90.15
18275;BME280;19470;49.322;7.218;2022-12-18T09:01:55;99895.59;;;-3.90;93.85
18275;BME280;19470;49.322;7.218;2022-12-18T09:04:23;99886.81;;;-3.55;91.87
18275;BME280;19470;49.322;7.218;2022-12-18T09:06:49;99886.91;;;-3.14;89.46
18275;BME280;19470;49.322;7.218;2022-12-18T09:09:16;99898.03;;;-3.23;89.21
18275;BME280;19470;49.322;7.218;2022-12-18T09:11:43;99905.81;;;-3.34;89.97
18275;BME280;19470;49.322;7.218;2022-12-18T09:14:09;99915.88;;;-3.09;90.27
18275;BME280;19470;49.322;7.218;2022-12-18T09:16:42;99918.47;;;-2.88;89.16
18275;BME280;19470;49.322;7.218;2022-12-18T09:19:12;99919.53;;;-3.11;91.40
18275;BME280;19470;49.322;7.218;2022-12-18T09:21:40;99933.50;;;-3.02;89.32
18275;BME280;19470;49.322;7.218;2022-12-18T09:24:11;99952.19;;;-3.31;90.40
18275;BME280;19470;49.322;7.218;2022-12-18T09:26:38;99955.72;;;-3.21;93.23
18275;BME280;19470;49.322;7.218;2022-12-18T09:29:04;99944.94;;;-2.73;90.95
18275;BME280;19470;49.322;7.218;2022-12-18T09:31:32;99939.63;;;-2.71;90.49
18275;BME280;19470;49.322;7.218;2022-12-18T09:33:59;99943.09;;;-2.40;90.21
18275;BME280;19470;49.322;7.218;2022-12-18T09:36:26;99944.22;;;-2.75;93.05
18275;BME280;19470;49.322;7.218;2022-12-18T09:38:54;99945.56;;;-2.60;94.39
18275;BME280;19470;49.322;7.218;2022-12-18T09:41:39;99941.03;;;-2.25;92.64
18275;BME280;19470;49.322;7.218;2022-12-18T09:44:13;99945.25;;;-2.66;94.55
18275;BME280;19470;49.322;7.218;2022-12-18T09:46:45;99946.75;;;-2.64;95.19
18275;BME280;19470;49.322;7.218;2022-12-18T09:49:16;99946.00;;;-2.96;96.25
18275;BME280;19470;49.322;7.218;2022-12-18T09:51:47;99952.31;;;-2.26;93.33
18275;BME280;19470;49.322;7.218;2022-12-18T09:54:21;99933.16;;;-2.14;91.15
18275;BME280;19470;49.322;7.218;2022-12-18T09:56:49;99931.59;;;-2.47;95.15
18275;BME280;19470;49.322;7.218;2022-12-18T09:59:21;99931.59;;;-2.47;95.75
18275;BME280;19470;49.322;7.218;2022-12-18T10:01:48;99928.66;;;-3.28;99.46
18275;BME280;19470;49.322;7.218;2022-12-18T10:04:15;99924.16;;;-2.94;99.66
18275;BME280;19470;49.322;7.218;2022-12-18T10:06:47;99918.72;;;-2.59;97.69
18275;BME280;19470;49.322;7.218;2022-12-18T10:09:27;99923.28;;;-2.20;97.59
18275;BME280;19470;49.322;7.218;2022-12-18T10:12:02;99922.81;;;-2.04;95.14
18275;BME280;19470;49.322;7.218;2022-12-18T10:14:37;99931.38;;;-1.83;93.61
18275;BME280;19470;49.322;7.218;2022-12-18T10:17:15;99923.47;;;-1.72;94.50
18275;BME280;19470;49.322;7.218;2022-12-18T10:19:49;99914.84;;;-2.13;98.30
18275;BME280;19470;49.322;7.218;2022-12-18T10:22:25;99916.28;;;-2.29;99.77
18275;BME280;19470;49.322;7.218;2022-12-18T10:25:02;99900.72;;;-2.50;100.00
18275;BME280;19470;49.322;7.218;2022-12-18T10:27:30;99903.19;;;-1.97;97.04
18275;BME280;19470;49.322;7.218;2022-12-18T10:29:57;99899.28;;;-1.72;95.94
18275;BME280;19470;49.322;7.218;2022-12-18T10:32:26;99889.34;;;-1.58;95.33
18275;BME280;19470;49.322;7.218;2022-12-18T10:34:55;99889.59;;;-1.51;97.46
18275;BME280;19470;49.322;7.218;2022-12-18T10:37:24;99890.09;;;-2.17;100.00
18275;BME280;19470;49.322;7.218;2022-12-18T10:40:08;99891.31;;;-1.81;99.31
18275;BME280;19470;49.322;7.218;2022-12-18T10:42:35;99893.16;;;-1.62;99.01
18275;BME280;19470;49.322;7.218;2022-12-18T10:45:05;99892.56;;;-1.75;98.86
18275;BME280;19470;49.322;7.218;2022-12-18T10:47:34;99889.88;;;-2.04;98.62
18275;BME280;19470;49.322;7.218;2022-12-18T10:50:01;99882.06;;;-1.73;100.00
18275;BME280;19470;49.322;7.218;2022-12-18T10:52:28;99881.72;;;-1.20;97.85
18275;BME280;19470;49.322;7.218;2022-12-18T10:54:58;99885.41;;;-1.13;96.63
18275;BME280;19470;49.322;7.218;2022-12-18T10:57:34;99879.97;;;-1.80;99.75
18275;BME280;19470;49.322;7.218;2022-12-18T11:00:21;99886.47;;;-1.55;98.70
18275;BME280;19470;49.322;7.218;2022-12-18T11:02:49;99871.47;;;-1.22;96.08
18275;BME280;19470;49.322;7.218;2022-12-18T11:05:27;99875.09;;;-2.44;100.00
18275;BME280;19470;49.322;7.218;2022-12-18T11:07:55;99861.97;;;-1.62;100.00
18275;BME280;19470;49.322;7.218;2022-12-18T11:10:25;99866.94;;;-1.49;100.00
18275;BME280;19470;49.322;7.218;2022-12-18T11:12:53;99868.09;;;-1.82;100.00
18275;BME280;19470;49.322;7.218;2022-12-18T11:15:22;99862.81;;;-1.32;99.95
18275;BME280;19470;49.322;7.218;2022-12-18T11:17:50;99850.19;;;-1.85;100.00
18275;BME280;19470;49.322;7.218;2022-12-18T11:20:30;99847.16;;;-1.90;100.00
18275;BME280;19470;49.322;7.218;2022-12-18T11:22:59;99844.97;;;-1.95;100.00
18275;BME280;19470;49.322;7.218;2022-12-18T11:25:27;99839.84;;;-1.46;100.00
18275;BME280;19470;49.322;7.218;2022-12-18T11:27:58;99854.06;;;-0.92;99.86
18275;BME280;19470;49.322;7.218;2022-12-18T11:30:27;99846.13;;;-1.00;98.96
18275;BME280;19470;49.322;7.218;2022-12-18T11:32:56;99840.81;;;-0.89;98.70
18275;BME280;19470;49.322;7.218;2022-12-18T11:35:34;99847.19;;;-1.71;100.00
18275;BME280;19470;49.322;7.218;2022-12-18T11:38:06;99831.66;;;-1.13;100.00
18275;BME280;19470;49.322;7.218;2022-12-18T11:40:40;99834.94;;;-1.30;100.00
18275;BME280;19470;49.322;7.218;2022-12-18T11:43:13;99829.88;;;-1.41;100.00
18275;BME280;19470;49.322;7.218;2022-12-18T11:45:43;99826.47;;;-1.13;100.00
18275;BME280;19470;49.322;7.218;2022-12-18T11:48:17;99827.81;;;-1.67;100.00
18275;BME280;19470;49.322;7.218;2022-12-18T11:50:48;99830.81;;;-0.94;100.00
18275;BME280;19470;49.322;7.218;2022-12-18T11:53:16;99833.84;;;-0.98;100.00
18275;BME280;19470;49.322;7.218;2022-12-18T11:55:50;99837.38;;;-0.99;100.00
18275;BME280;19470;49.322;7.218;2022-12-18T11:58:30;99834.75;;;-0.90;100.00
18275;BME280;19470;49.322;7.218;2022-12-18T12:01:03;99843.38;;;-0.99;100.00
18275;BME280;19470;49.322;7.218;2022-12-18T12:03:48;99834.09;;;-0.92;100.00
18275;BME280;19470;49.322;7.218;2022-12-18T12:06:22;99840.91;;;-0.81;100.00
18275;BME280;19470;49.322;7.218;2022-12-18T12:09:01;99839.97;;;-0.99;100.00
18275;BME280;19470;49.322;7.218;2022-12-18T12:11:37;99827.47;;;-0.67;98.73
18275;BME280;19470;49.322;7.218;2022-12-18T12:14:19;99827.31;;;-0.56;99.22
18275;BME280;19470;49.322;7.218;2022-12-18T12:16:53;99817.28;;;-0.50;99.33
18275;BME280;19470;49.322;7.218;2022-12-18T12:19:32;99811.72;;;-0.65;99.85
18275;BME280;19470;49.322;7.218;2022-12-18T12:22:10;99809.50;;;-1.17;100.00
18275;BME280;19470;49.322;7.218;2022-12-18T12:24:49;99807.97;;;-1.19;100.00
18275;BME280;19470;49.322;7.218;2022-12-18T12:27:25;99792.84;;;-0.77;100.00
18275;BME280;19470;49.322;7.218;2022-12-18T12:30:02;99791.56;;;-1.20;100.00
18275;BME280;19470;49.322;7.218;2022-12-18T12:32:42;99794.09;;;-0.81;100.00
18275;BME280;19470;49.322;7.218;2022-12-18T12:35:21;99786.69;;;-0.76;100.00
18275;BME280;19470;49.322;7.218;2022-12-18T12:37:55;99788.09;;;-0.44;100.00
18275;BME280;19470;49.322;7.218;2022-12-18T12:40:27;99787.63;;;-0.67;100.00
18275;BME280;19470;49.322;7.218;2022-12-18T12:42:56;99777.63;;;-0.72;100.00
18275;BME280;19470;49.322;7.218;2022-12-18T12:45:44;99773.41;;;-0.36;100.00
18275;BME280;19470;49.322;7.218;2022-12-18T12:48:19;99763.84;;;-0.45;100.00
18275;BME280;19470;49.322;7.218;2022-12-18T12:50:48;99762.66;;;-0.23;100.00
18275;BME280;19470;49.322;7.218;2022-12-18T12:53:22;99760.72;;;-0.21;100.00
18275;BME280;19470;49.322;7.218;2022-12-18T12:55:50;99766.03;;;-0.40;100.00
18275;BME280;19470;49.322;7.218;2022-12-18T12:58:25;99768.09;;;-0.16;100.00
18275;BME280;19470;49.322;7.218;2022-12-18T13:01:02;99753.47;;;0.01;99.46
18275;BME280;19470;49.322;7.218;2022-12-18T13:03:36;99762.66;;;-0.23;100.00
18275;BME280;19470;49.322;7.218;2022-12-18T13:06:13;99760.38;;;-0.08;99.16